This is the latest recevied weather packets stored in our database for station/object SV6DBG-10. If no packets are shown the sender has not sent any weather packets the latest 10 day(s).
| Time | Temp. | Humidity | Pressure | Rain* | Wind** | Luminosity | Snow |
|---|---|---|---|---|---|---|---|
| 1777639033 | 18.33° C | 29% | 1019.3 hPa | - | - | - | - |
| 1777638133 | 18.33° C | 31% | 1019.3 hPa | - | - | - | - |
| 1777637233 | 18.33° C | 31% | 1019.3 hPa | - | - | - | - |
| 1777636332 | 20° C | 26% | 1019.3 hPa | - | - | - | - |
| 1777635432 | 21.11° C | 25% | 1019.4 hPa | - | - | - | - |
| 1777634532 | 20° C | 26% | 1019.6 hPa | - | - | - | - |
| 1777633632 | 20° C | 27% | 1019.4 hPa | - | - | - | - |
| 1777632732 | 19.44° C | 27% | 1019.5 hPa | - | - | - | - |
| 1777631831 | 19.44° C | 27% | 1019.5 hPa | - | - | - | - |
| 1777630931 | 21.11° C | 25% | 1019.5 hPa | - | - | - | - |
| 1777630031 | 21.11° C | 26% | 1019.6 hPa | - | - | - | - |
| 1777629131 | 19.44° C | 28% | 1019.7 hPa | - | - | - | - |
| 1777628231 | 20° C | 29% | 1019.6 hPa | - | - | - | - |
| 1777627331 | 20.56° C | 27% | 1019.7 hPa | - | - | - | - |
| 1777626431 | 21.67° C | 26% | 1019.5 hPa | - | - | - | - |
| 1777625530 | 22.22° C | 24% | 1019.5 hPa | - | - | - | - |
| 1777624630 | 22.78° C | 26% | 1019.3 hPa | - | - | - | - |
| 1777623730 | 20° C | 30% | 1019.1 hPa | - | - | - | - |
| 1777622830 | 23.89° C | 25% | 1019 hPa | - | - | - | - |
| 1777621930 | 20° C | 30% | 1019.1 hPa | - | - | - | - |
| 1777621030 | 25° C | 21% | 1018.9 hPa | - | - | - | - |
| 1777620129 | 23.89° C | 23% | 1018.8 hPa | - | - | - | - |
| 1777619229 | 23.89° C | 23% | 1018.8 hPa | - | - | - | - |
| 1777618329 | 23.33° C | 24% | 1018.9 hPa | - | - | - | - |
| 1777617429 | 23.33° C | 25% | 1018.8 hPa | - | - | - | - |
* Rain since midnight (hover to see other rain measurements)
** Current wind speed in m/s (hover to see current wind gust speed)